Time;durP1;ratioP1;P1;durP2;ratioP2;P2;SDS_P1;SDS_P2;PMS_P1;PMS_P2;Temp;Humidity;BMP_temperature;BMP_pressure;BME280_temperature;BME280_humidity;BME280_pressure;Samples;Min_cycle;Max_cycle;Signal;HPM_P1;HPM_P2
2024/04/03 00:00:46;;;;;;;0.00;0.00;;;11.80;89.70;;;;;;5025280;28;20017;-82
2024/04/03 00:03:12;;;;;;;0.10;0.10;;;11.90;89.60;;;;;;5049768;28;20034;-82
2024/04/03 00:05:38;;;;;;;0.10;0.10;;;11.90;89.50;;;;;;5039262;28;20026;-82
2024/04/03 00:08:04;;;;;;;0.10;0.10;;;11.90;89.50;;;;;;5039108;28;20482;-81
2024/04/03 00:10:30;;;;;;;0.00;0.00;;;11.90;89.60;;;;;;5038827;28;20071;-81
2024/04/03 00:12:56;;;;;;;0.10;0.10;;;11.90;89.50;;;;;;5020995;28;20037;-81
2024/04/03 00:15:22;;;;;;;0.10;0.10;;;11.90;89.60;;;;;;5039038;28;20472;-82
2024/04/03 00:17:49;;;;;;;0.10;0.10;;;11.80;89.40;;;;;;5038834;28;20036;-82
2024/04/03 00:20:15;;;;;;;0.10;0.10;;;11.80;89.50;;;;;;5019348;28;20108;-82
2024/04/03 00:22:41;;;;;;;0.10;0.10;;;11.80;89.70;;;;;;5019035;28;20041;-82
2024/04/03 00:25:06;;;;;;;0.10;0.10;;;11.80;89.90;;;;;;5019122;28;20058;-82
2024/04/03 00:27:32;;;;;;;0.10;0.10;;;11.80;89.80;;;;;;5018903;28;20036;-82
2024/04/03 00:29:58;;;;;;;0.08;0.08;;;11.80;89.90;;;;;;5025252;28;20029;-82
2024/04/03 00:32:23;;;;;;;0.10;0.10;;;11.80;89.90;;;;;;5022489;28;20185;-82
2024/04/03 00:34:52;;;;;;;0.10;0.10;;;11.80;89.90;;;;;;5018862;28;20036;-82
2024/04/03 00:37:19;;;;;;;0.00;0.00;;;11.80;90.10;;;;;;5016780;28;20026;-82
2024/04/03 00:39:44;;;;;;;0.10;0.10;;;11.80;90.10;;;;;;5029335;28;20017;-82
2024/04/03 00:42:10;;;;;;;0.00;0.00;;;11.80;90.20;;;;;;5030066;28;20131;-82
2024/04/03 00:44:35;;;;;;;0.10;0.10;;;11.80;90.30;;;;;;5017683;28;20029;-82
2024/04/03 00:47:02;;;;;;;0.10;0.10;;;11.80;90.20;;;;;;5017454;28;20033;-82
2024/04/03 00:49:29;;;;;;;0.10;0.10;;;11.80;90.30;;;;;;5017444;28;20026;-82
2024/04/03 00:51:54;;;;;;;0.10;0.10;;;11.80;90.50;;;;;;5018007;28;20048;-82
2024/04/03 00:54:21;;;;;;;0.10;0.10;;;11.80;90.40;;;;;;5018410;28;20463;-82
2024/04/03 00:56:47;;;;;;;0.10;0.10;;;11.80;90.30;;;;;;5018211;28;20026;-82
2024/04/03 00:59:16;;;;;;;0.03;0.03;;;11.80;90.30;;;;;;5018143;28;20029;-82
2024/04/03 01:01:41;;;;;;;0.10;0.10;;;11.80;90.20;;;;;;5016801;28;20026;-82
2024/04/03 01:04:07;;;;;;;0.10;0.10;;;11.80;90.20;;;;;;5024025;28;20045;-82
2024/04/03 01:06:35;;;;;;;0.10;0.10;;;11.90;90.10;;;;;;5018305;28;20021;-82
2024/04/03 01:09:00;;;;;;;0.10;0.10;;;11.90;90.00;;;;;;5023551;28;20029;-82
2024/04/03 01:11:26;;;;;;;0.10;0.10;;;11.90;90.00;;;;;;5025380;28;20030;-82
2024/04/03 01:13:52;;;;;;;0.10;0.10;;;11.80;90.10;;;;;;5018185;28;20459;-82
2024/04/03 01:16:18;;;;;;;0.10;0.10;;;11.80;90.10;;;;;;5016382;28;20373;-82
2024/04/03 01:18:43;;;;;;;0.10;0.10;;;11.80;90.30;;;;;;5017932;28;20029;-81
2024/04/03 01:21:09;;;;;;;0.10;0.10;;;11.80;90.30;;;;;;5018199;28;20507;-82
2024/04/03 01:23:34;;;;;;;0.10;0.10;;;11.80;90.40;;;;;;5019098;28;20033;-82
2024/04/03 01:26:00;;;;;;;0.10;0.10;;;11.80;90.50;;;;;;5051672;28;20036;-81
2024/04/03 01:28:26;;;;;;;0.10;0.10;;;11.80;90.50;;;;;;5057112;28;20033;-82
2024/04/03 01:30:51;;;;;;;0.10;0.10;;;11.80;90.70;;;;;;5039951;28;20029;-81
2024/04/03 01:33:17;;;;;;;0.00;0.00;;;11.80;90.80;;;;;;5021267;28;20046;-82
2024/04/03 01:35:42;;;;;;;0.10;0.10;;;11.80;90.70;;;;;;5031250;28;20050;-82
2024/04/03 01:38:09;;;;;;;0.10;0.10;;;11.80;90.80;;;;;;5024269;28;20040;-81
2024/04/03 01:40:35;;;;;;;0.10;0.10;;;11.80;90.90;;;;;;4999668;28;20018;-82
2024/04/03 01:43:01;;;;;;;0.10;0.10;;;11.80;90.80;;;;;;5030309;28;20093;-81
2024/04/03 01:45:26;;;;;;;0.10;0.10;;;11.90;90.80;;;;;;5037126;28;20487;-81
2024/04/03 01:47:52;;;;;;;0.10;0.10;;;11.80;90.80;;;;;;5036990;28;20029;-82
2024/04/03 01:50:35;;;;;;;0.10;0.10;;;11.80;90.80;;;;;;5018669;28;20032;-81
2024/04/03 01:53:01;;;;;;;0.10;0.10;;;11.80;90.80;;;;;;5036419;28;20030;-82
2024/04/03 01:55:26;;;;;;;0.10;0.10;;;11.90;90.90;;;;;;5009197;28;20033;-81
2024/04/03 01:57:52;;;;;;;0.10;0.10;;;11.80;90.90;;;;;;5017234;28;20038;-82
2024/04/03 02:00:18;;;;;;;0.08;0.08;;;11.80;91.10;;;;;;5033956;28;20032;-82
2024/04/03 02:02:43;;;;;;;0.10;0.10;;;11.90;91.00;;;;;;5036544;28;20037;-82
2024/04/03 02:05:09;;;;;;;0.10;0.10;;;11.90;91.00;;;;;;5023286;28;20491;-82
2024/04/03 02:07:34;;;;;;;0.10;0.10;;;12.00;90.90;;;;;;5016820;28;20436;-81
2024/04/03 02:10:00;;;;;;;0.10;0.10;;;12.00;90.80;;;;;;5030562;28;20059;-82
2024/04/03 02:12:25;;;;;;;0.10;0.10;;;12.00;90.80;;;;;;5036460;28;20112;-82
2024/04/03 02:14:51;;;;;;;0.10;0.10;;;12.10;90.70;;;;;;5019524;28;20145;-82
2024/04/03 02:17:17;;;;;;;0.10;0.10;;;12.10;90.70;;;;;;5034241;28;20022;-82
2024/04/03 02:19:42;;;;;;;0.10;0.10;;;12.10;90.60;;;;;;5023289;28;20029;-81
2024/04/03 02:22:08;;;;;;;0.10;0.10;;;12.00;90.60;;;;;;5017075;28;20053;-82
2024/04/03 02:24:33;;;;;;;0.10;0.10;;;12.00;90.50;;;;;;5016583;28;20447;-82
2024/04/03 02:26:59;;;;;;;0.10;0.10;;;12.10;90.60;;;;;;5016619;28;20042;-82
2024/04/03 02:29:25;;;;;;;0.10;0.10;;;12.10;90.50;;;;;;5016978;28;20100;-81
2024/04/03 02:31:50;;;;;;;0.10;0.10;;;12.20;90.40;;;;;;5028936;28;20707;-82
2024/04/03 02:34:16;;;;;;;0.10;0.10;;;12.10;90.40;;;;;;5016939;28;20018;-82
2024/04/03 02:36:42;;;;;;;0.10;0.10;;;12.10;90.40;;;;;;5016182;28;20056;-82
2024/04/03 02:39:08;;;;;;;0.10;0.10;;;12.10;90.40;;;;;;5023479;28;20104;-82
2024/04/03 02:41:33;;;;;;;0.03;0.03;;;12.20;90.30;;;;;;5033329;28;20025;-82
2024/04/03 02:43:59;;;;;;;0.10;0.10;;;12.10;90.20;;;;;;5015010;28;20038;-82
2024/04/03 02:46:25;;;;;;;0.10;0.10;;;12.10;90.30;;;;;;5016348;28;20100;-82
2024/04/03 02:48:50;;;;;;;0.10;0.10;;;12.10;90.30;;;;;;5015286;28;20088;-82
2024/04/03 02:51:16;;;;;;;0.10;0.10;;;12.10;90.20;;;;;;5016288;28;20026;-82
2024/04/03 02:53:42;;;;;;;0.10;0.10;;;12.10;90.20;;;;;;5016383;28;20029;-82
2024/04/03 02:56:08;;;;;;;0.10;0.10;;;12.00;90.20;;;;;;5016613;28;20033;-81
2024/04/03 02:58:35;;;;;;;0.00;0.00;;;12.00;90.40;;;;;;5016130;28;20101;-82
2024/04/03 03:01:06;;;;;;;0.10;0.10;;;11.90;90.40;;;;;;5016251;28;20081;-82
2024/04/03 03:03:32;;;;;;;0.10;0.10;;;11.90;90.50;;;;;;5025171;28;20392;-82
2024/04/03 03:05:58;;;;;;;0.10;0.10;;;11.90;90.60;;;;;;5036165;28;20080;-82
2024/04/03 03:08:25;;;;;;;0.10;0.10;;;11.90;90.50;;;;;;5025925;28;20373;-82
2024/04/03 03:10:51;;;;;;;0.10;0.10;;;11.90;90.60;;;;;;5018188;28;20104;-82
2024/04/03 03:13:17;;;;;;;0.10;0.10;;;11.90;90.60;;;;;;5036074;28;20119;-82
2024/04/03 03:15:54;;;;;;;0.10;0.10;;;11.90;90.40;;;;;;5033315;28;20030;-82
2024/04/03 03:18:24;;;;;;;0.10;0.10;;;11.90;90.40;;;;;;5014978;28;20041;-82
2024/04/03 03:20:50;;;;;;;0.10;0.10;;;12.00;90.50;;;;;;5015699;28;20073;-82
2024/04/03 03:23:17;;;;;;;0.10;0.10;;;12.00;90.40;;;;;;5016018;28;20108;-82
2024/04/03 03:25:45;;;;;;;0.10;0.10;;;11.90;90.50;;;;;;5019727;28;20034;-82
2024/04/03 03:28:11;;;;;;;0.10;0.10;;;11.90;90.50;;;;;;5019574;28;20029;-82
2024/04/03 03:30:37;;;;;;;0.05;0.05;;;11.90;90.60;;;;;;5019949;28;20051;-82
2024/04/03 03:33:03;;;;;;;0.10;0.10;;;11.90;90.70;;;;;;5021248;28;20037;-82
2024/04/03 03:35:29;;;;;;;0.08;0.08;;;11.80;90.60;;;;;;5028393;28;20037;-82
2024/04/03 03:37:55;;;;;;;0.10;0.10;;;11.80;90.60;;;;;;5019399;28;20481;-82
2024/04/03 03:40:20;;;;;;;0.10;0.10;;;11.80;90.70;;;;;;5032199;28;20244;-82
2024/04/03 03:42:46;;;;;;;0.10;0.10;;;11.90;90.60;;;;;;5019763;28;20038;-82
2024/04/03 03:45:19;;;;;;;0.10;0.10;;;11.90;90.60;;;;;;5019611;28;20498;-82
2024/04/03 03:47:45;;;;;;;;;;;11.90;90.50;;;;;;5018661;28;20034;-82
2024/04/03 03:52:54;;;;;;;0.03;0.03;;;12.00;90.50;;;;;;5019162;28;20040;-82
2024/04/03 03:55:20;;;;;;;0.10;0.10;;;12.00;90.60;;;;;;5018772;28;20081;-82
2024/04/03 03:57:46;;;;;;;0.10;0.10;;;12.00;90.60;;;;;;5019542;28;20104;-82
2024/04/03 04:00:12;;;;;;;0.10;0.10;;;12.10;90.50;;;;;;5019336;28;20018;-82
2024/04/03 04:02:37;;;;;;;0.10;0.10;;;12.10;90.40;;;;;;5036483;28;20042;-82
2024/04/03 04:05:03;;;;;;;0.10;0.10;;;12.10;90.40;;;;;;5034171;28;20045;-82
2024/04/03 04:07:29;;;;;;;0.10;0.10;;;12.10;90.30;;;;;;5019273;28;20033;-82
2024/04/03 04:09:54;;;;;;;0.00;0.00;;;12.10;90.30;;;;;;5032448;28;20104;-82
2024/04/03 04:12:20;;;;;;;0.10;0.10;;;12.20;90.40;;;;;;5038652;28;20021;-82
2024/04/03 04:14:51;;;;;;;0.10;0.10;;;12.20;90.30;;;;;;5037727;28;20030;-82
2024/04/03 04:17:18;;;;;;;0.10;0.10;;;12.10;90.30;;;;;;5017825;28;20029;-82
2024/04/03 04:19:44;;;;;;;0.10;0.10;;;12.10;90.50;;;;;;5018172;28;20052;-82
2024/04/03 04:22:09;;;;;;;0.10;0.10;;;12.10;90.50;;;;;;5035231;28;20418;-82
2024/04/03 04:24:36;;;;;;;0.10;0.10;;;12.10;90.70;;;;;;5038265;28;20100;-82
2024/04/03 04:27:07;;;;;;;0.05;0.05;;;12.00;90.80;;;;;;5037724;28;20029;-82
2024/04/03 04:29:36;;;;;;;0.10;0.10;;;12.10;90.90;;;;;;5037221;28;20128;-82
2024/04/03 04:32:04;;;;;;;0.10;0.10;;;12.10;90.80;;;;;;5041170;28;20021;-82
2024/04/03 04:34:30;;;;;;;0.10;0.10;;;12.20;90.80;;;;;;5052847;28;20021;-82
2024/04/03 04:36:56;;;;;;;0.10;0.10;;;12.20;90.80;;;;;;5057315;28;20029;-82
2024/04/03 04:39:21;;;;;;;0.10;0.10;;;12.20;90.80;;;;;;5049834;28;20021;-82
2024/04/03 04:41:53;;;;;;;0.10;0.10;;;12.20;90.70;;;;;;5053476;28;20032;-81
2024/04/03 04:44:19;;;;;;;0.10;0.10;;;12.20;90.70;;;;;;5047988;28;20542;-82
2024/04/03 04:46:49;;;;;;;0.10;0.10;;;12.20;90.70;;;;;;5038424;28;20026;-81
2024/04/03 04:49:19;;;;;;;0.10;0.10;;;12.20;90.70;;;;;;5044123;28;20025;-82
2024/04/03 04:51:45;;;;;;;0.10;0.10;;;12.30;90.70;;;;;;5058368;28;20499;-80
2024/04/03 04:54:11;;;;;;;0.10;0.10;;;12.30;90.70;;;;;;5038212;28;20052;-79
2024/04/03 04:56:38;;;;;;;0.10;0.10;;;12.30;90.60;;;;;;5038074;28;20097;-85
2024/04/03 04:59:03;;;;;;;0.10;0.10;;;12.30;90.60;;;;;;5036513;28;20475;-78
2024/04/03 05:01:33;;;;;;;0.10;0.10;;;12.30;90.50;;;;;;5062334;28;20033;-89
2024/04/03 05:03:59;;;;;;;0.10;0.10;;;12.30;90.50;;;;;;5073484;28;20088;-87
2024/04/03 05:06:24;;;;;;;0.10;0.10;;;12.40;90.50;;;;;;5057628;28;20477;-87
2024/04/03 05:08:50;;;;;;;0.10;0.10;;;12.50;90.30;;;;;;5027756;28;20464;-82
2024/04/03 05:11:16;;;;;;;0.10;0.10;;;12.50;90.30;;;;;;5040593;28;20479;-80
2024/04/03 05:13:42;;;;;;;0.10;0.10;;;12.50;90.10;;;;;;5039684;28;20033;-80
2024/04/03 05:16:11;;;;;;;0.10;0.10;;;12.60;90.20;;;;;;5055334;28;20035;-78
2024/04/03 05:18:38;;;;;;;0.10;0.10;;;12.60;90.00;;;;;;5033752;28;20388;-79
2024/04/03 05:21:05;;;;;;;0.10;0.10;;;12.60;90.10;;;;;;5047561;28;20046;-84
2024/04/03 05:23:31;;;;;;;0.10;0.10;;;12.60;90.10;;;;;;5037171;28;20425;-82
2024/04/03 05:26:01;;;;;;;0.10;0.10;;;12.70;90.00;;;;;;5037545;28;20165;-83
2024/04/03 05:28:28;;;;;;;0.10;0.10;;;12.60;90.00;;;;;;5035062;28;20041;-76
2024/04/03 05:30:54;;;;;;;0.10;0.10;;;12.60;90.00;;;;;;5035589;28;20027;-82
2024/04/03 05:33:20;;;;;;;0.10;0.10;;;12.60;90.20;;;;;;5035676;28;20147;-83
2024/04/03 05:36:00;;;;;;;0.10;0.10;;;12.60;90.20;;;;;;5036749;28;20048;-83
2024/04/03 05:38:26;;;;;;;0.10;0.10;;;12.60;90.10;;;;;;5031831;28;20033;-83
2024/04/03 05:40:53;;;;;;;0.10;0.10;;;12.50;90.40;;;;;;5015868;28;20472;-83
2024/04/03 05:43:19;;;;;;;0.10;0.10;;;12.50;90.40;;;;;;5036844;28;20824;-83
2024/04/03 05:45:45;;;;;;;0.10;0.10;;;12.50;90.60;;;;;;5033999;28;20022;-82
2024/04/03 05:48:11;;;;;;;0.10;0.10;;;12.50;90.70;;;;;;5037055;28;20065;-86
2024/04/03 05:50:37;;;;;;;0.10;0.10;;;12.50;90.80;;;;;;5037459;28;20022;-82
2024/04/03 05:53:03;;;;;;;0.10;0.10;;;12.50;90.80;;;;;;5036595;28;20052;-83
2024/04/03 05:55:29;;;;;;;0.10;0.10;;;12.50;90.80;;;;;;5019327;28;20030;-83
2024/04/03 05:57:55;;;;;;;0.10;0.10;;;12.50;90.80;;;;;;5017430;28;20030;-83
2024/04/03 06:00:21;;;;;;;0.10;0.10;;;12.50;90.80;;;;;;5017345;28;20526;-83
2024/04/03 06:02:47;;;;;;;0.10;0.10;;;12.50;90.70;;;;;;5018371;28;20030;-82
2024/04/03 06:05:12;;;;;;;0.10;0.10;;;12.50;90.70;;;;;;5017190;28;20037;-83
2024/04/03 06:07:42;;;;;;;0.10;0.10;;;12.60;90.80;;;;;;5017354;28;20029;-82
2024/04/03 06:10:09;;;;;;;0.10;0.10;;;12.60;90.60;;;;;;5031918;28;20030;-82
2024/04/03 06:12:35;;;;;;;0.10;0.10;;;12.60;90.50;;;;;;5021405;28;20034;-83
2024/04/03 06:15:00;;;;;;;0.10;0.10;;;12.70;90.40;;;;;;5016654;28;20034;-83
2024/04/03 06:17:26;;;;;;;0.10;0.10;;;12.70;90.30;;;;;;4999610;28;20136;-82
2024/04/03 06:19:51;;;;;;;0.10;0.10;;;12.70;90.10;;;;;;5016954;28;20523;-83
2024/04/03 06:22:17;;;;;;;0.10;0.10;;;12.80;90.20;;;;;;5016833;28;20562;-83
2024/04/03 06:24:43;;;;;;;0.10;0.10;;;12.80;90.10;;;;;;5016562;28;20551;-83
2024/04/03 06:27:09;;;;;;;0.10;0.10;;;12.90;90.10;;;;;;5017207;28;20484;-83
2024/04/03 06:29:34;;;;;;;0.10;0.10;;;12.90;90.00;;;;;;5017133;28;20109;-82
2024/04/03 06:32:01;;;;;;;0.10;0.10;;;12.90;89.90;;;;;;5016781;28;20033;-83
2024/04/03 06:34:27;;;;;;;0.10;0.10;;;12.90;89.70;;;;;;5016632;28;20033;-83
2024/04/03 06:36:52;;;;;;;0.10;0.10;;;13.00;89.80;;;;;;5016873;28;20030;-83
2024/04/03 06:39:19;;;;;;;0.10;0.10;;;13.00;89.60;;;;;;5024835;28;20038;-82
2024/04/03 06:41:44;;;;;;;0.10;0.10;;;13.00;89.70;;;;;;5051975;28;20029;-83
2024/04/03 06:44:10;;;;;;;0.10;0.10;;;13.10;89.70;;;;;;5036200;28;20387;-83
2024/04/03 06:46:35;;;;;;;0.10;0.10;;;13.10;89.50;;;;;;5036663;28;20037;-82
2024/04/03 06:49:01;;;;;;;0.13;0.13;;;13.10;89.40;;;;;;5024413;28;20030;-83
2024/04/03 06:51:27;;;;;;;0.10;0.10;;;13.10;89.40;;;;;;5016411;28;20420;-83
2024/04/03 06:53:53;;;;;;;0.10;0.10;;;13.10;89.50;;;;;;5015484;28;20057;-82
2024/04/03 06:56:19;;;;;;;0.10;0.10;;;13.20;89.50;;;;;;5015502;28;20030;-82
2024/04/03 06:58:44;;;;;;;0.10;0.10;;;13.20;89.30;;;;;;5017405;28;20025;-81
2024/04/03 07:01:12;;;;;;;0.10;0.10;;;13.20;89.30;;;;;;5038530;28;20025;-82
2024/04/03 07:03:38;;;;;;;0.10;0.10;;;13.20;89.20;;;;;;5031733;28;20476;-82
2024/04/03 07:06:05;;;;;;;0.10;0.10;;;13.30;89.20;;;;;;5033522;28;20028;-83
2024/04/03 07:08:32;;;;;;;0.10;0.10;;;13.30;89.20;;;;;;5024965;28;20380;-83
2024/04/03 07:10:58;;;;;;;0.10;0.10;;;13.30;89.00;;;;;;5042861;28;20391;-82
2024/04/03 07:13:23;;;;;;;0.10;0.10;;;13.40;88.90;;;;;;5040374;28;20025;-81
2024/04/03 07:15:50;;;;;;;0.10;0.10;;;13.50;89.00;;;;;;5042972;28;20033;-83
2024/04/03 07:18:17;;;;;;;0.10;0.10;;;13.70;88.70;;;;;;5042841;28;20040;-82
2024/04/03 07:20:53;;;;;;;0.10;0.10;;;13.70;88.40;;;;;;5033356;28;20076;-83
2024/04/03 07:23:18;;;;;;;0.10;0.10;;;13.60;88.60;;;;;;5031491;28;20036;-82
2024/04/03 07:25:44;;;;;;;0.10;0.10;;;13.60;88.70;;;;;;5021543;28;20026;-82
2024/04/03 07:28:11;;;;;;;0.10;0.10;;;13.70;88.50;;;;;;5024140;28;20068;-82
2024/04/03 07:30:37;;;;;;;0.10;0.10;;;13.80;88.20;;;;;;5021764;28;20089;-82
2024/04/03 07:33:05;;;;;;;0.10;0.10;;;14.00;87.70;;;;;;5021472;28;20054;-82
2024/04/03 07:35:30;;;;;;;0.10;0.10;;;14.50;87.30;;;;;;5021592;28;20034;-82
2024/04/03 07:37:56;;;;;;;0.10;0.10;;;14.30;86.90;;;;;;5022443;28;20029;-82
2024/04/03 07:40:22;;;;;;;0.10;0.10;;;14.20;87.20;;;;;;5038407;28;20514;-82
2024/04/03 07:42:48;;;;;;;0.10;0.10;;;14.10;87.20;;;;;;5042322;28;20091;-83
2024/04/03 07:45:14;;;;;;;0.10;0.10;;;14.00;87.50;;;;;;5039502;28;20069;-82
2024/04/03 07:47:40;;;;;;;0.10;0.10;;;14.00;87.60;;;;;;5022819;28;20041;-81
2024/04/03 07:50:06;;;;;;;0.10;0.10;;;14.00;87.50;;;;;;5022809;28;20021;-83
2024/04/03 07:52:32;;;;;;;0.10;0.10;;;14.20;87.60;;;;;;5021312;28;20034;-83
2024/04/03 07:54:59;;;;;;;0.10;0.10;;;14.30;87.10;;;;;;5022655;28;20018;-82
2024/04/03 07:57:25;;;;;;;0.10;0.10;;;14.30;87.20;;;;;;5022585;28;20032;-82
2024/04/03 07:59:50;;;;;;;0.10;0.10;;;14.20;86.80;;;;;;5021424;28;20022;-83
2024/04/03 08:02:16;;;;;;;0.00;0.00;;;14.10;87.00;;;;;;5004421;28;20374;-82
2024/04/03 08:04:42;;;;;;;0.10;0.10;;;14.20;87.30;;;;;;5041296;28;20021;-83
2024/04/03 08:07:08;;;;;;;0.10;0.10;;;14.20;87.20;;;;;;5024298;28;20428;-83
2024/04/03 08:09:35;;;;;;;0.10;0.10;;;14.30;86.80;;;;;;5022254;28;20021;-83
2024/04/03 08:12:01;;;;;;;0.10;0.10;;;14.50;86.40;;;;;;5038080;28;20029;-82
2024/04/03 08:14:27;;;;;;;0.10;0.10;;;14.60;85.20;;;;;;5033084;28;20026;-82
2024/04/03 08:16:54;;;;;;;0.10;0.10;;;14.70;85.30;;;;;;5019356;28;20104;-82
2024/04/03 08:19:20;;;;;;;0.00;0.00;;;14.70;84.40;;;;;;5017925;28;20030;-82
2024/04/03 08:21:48;;;;;;;0.32;0.32;;;14.50;83.80;;;;;;5019489;28;20370;-83
2024/04/03 08:24:14;;;;;;;3.58;3.47;;;16.50;81.70;;;;;;5018947;28;20109;-84
2024/04/03 08:26:40;;;;;;;0.38;0.38;;;18.00;76.00;;;;;;5019064;28;20059;-84
2024/04/03 08:29:06;;;;;;;0.25;0.25;;;18.70;72.30;;;;;;5018963;28;20041;-84
2024/04/03 08:31:31;;;;;;;1.00;1.00;;;19.60;69.10;;;;;;5001817;28;20018;-82
2024/04/03 08:34:00;;;;;;;0.63;0.63;;;20.30;67.90;;;;;;5018681;28;20477;-83
2024/04/03 08:36:26;;;;;;;2.67;2.58;;;21.40;63.90;;;;;;5019273;28;20084;-84
2024/04/03 08:38:52;;;;;;;0.00;0.00;;;22.00;61.30;;;;;;5019057;28;20034;-84
2024/04/03 08:41:19;;;;;;;0.10;0.10;;;21.10;60.20;;;;;;5032086;28;20056;-84
2024/04/03 08:43:48;;;;;;;0.00;0.00;;;20.10;62.30;;;;;;5021160;28;20080;-84
2024/04/03 08:46:15;;;;;;;0.10;0.10;;;19.00;64.60;;;;;;5038524;28;20021;-84
2024/04/03 08:48:40;;;;;;;0.10;0.10;;;18.30;66.30;;;;;;5034047;28;20051;-84
2024/04/03 08:51:06;;;;;;;0.10;0.10;;;17.60;66.10;;;;;;5019055;28;20495;-84
2024/04/03 08:53:32;;;;;;;0.00;0.00;;;17.40;68.80;;;;;;5017332;28;20888;-83
2024/04/03 08:55:59;;;;;;;0.00;0.00;;;16.80;69.10;;;;;;5001141;28;20025;-83
2024/04/03 08:58:25;;;;;;;0.10;0.10;;;16.40;70.80;;;;;;5017280;28;20021;-84
2024/04/03 09:00:52;;;;;;;0.00;0.00;;;16.30;72.20;;;;;;5018247;28;20129;-84
2024/04/03 09:03:21;;;;;;;0.00;0.00;;;16.00;72.10;;;;;;5025762;28;20030;-83
2024/04/03 09:05:49;;;;;;;0.00;0.00;;;16.00;71.80;;;;;;5020651;28;20117;-84
2024/04/03 09:08:15;;;;;;;0.00;0.00;;;15.80;72.50;;;;;;5018661;28;20037;-83
2024/04/03 09:11:01;;;;;;;0.08;0.08;;;15.70;72.60;;;;;;5034080;28;20026;-84
2024/04/03 09:13:27;;;;;;;0.10;0.10;;;15.50;72.40;;;;;;5018213;28;20036;-83
2024/04/03 09:15:53;;;;;;;0.10;0.10;;;15.50;73.90;;;;;;5017103;28;20014;-83
2024/04/03 09:18:19;;;;;;;0.10;0.10;;;15.40;73.60;;;;;;5018335;28;20026;-83
2024/04/03 09:20:47;;;;;;;0.10;0.10;;;15.50;74.30;;;;;;5018217;28;20038;-83
2024/04/03 09:23:13;;;;;;;0.68;0.68;;;16.40;73.30;;;;;;5016256;28;20030;-83
2024/04/03 09:25:39;;;;;;;1.10;1.10;;;17.20;71.90;;;;;;5017850;28;20392;-83
2024/04/03 09:28:07;;;;;;;0.30;0.30;;;19.60;66.30;;;;;;5018232;28;20022;-83
2024/04/03 09:30:34;;;;;;;0.20;0.20;;;21.20;63.00;;;;;;5017030;28;20033;-84
2024/04/03 09:33:02;;;;;;;1.00;1.00;;;20.80;60.00;;;;;;5025435;28;20029;-84
2024/04/03 09:35:39;;;;;;;0.95;0.95;;;22.00;56.90;;;;;;5030239;28;20046;-84
2024/04/03 09:38:05;;;;;;;1.10;1.10;;;23.10;53.10;;;;;;5016437;28;20508;-84
2024/04/03 09:40:33;;;;;;;1.10;1.10;;;23.80;50.10;;;;;;5035638;28;20080;-84
2024/04/03 09:43:03;;;;;;;0.93;0.93;;;24.60;49.10;;;;;;5037756;28;20025;-83
2024/04/03 09:45:30;;;;;;;0.57;0.57;;;24.70;48.80;;;;;;5024876;28;20034;-84
2024/04/03 09:48:00;;;;;;;0.00;0.00;;;24.80;47.90;;;;;;5033278;28;20477;-84
2024/04/03 09:50:32;;;;;;;0.00;0.00;;;22.90;48.10;;;;;;5017598;28;20064;-84
2024/04/03 09:52:59;;;;;;;0.00;0.00;;;21.60;51.20;;;;;;5017362;28;20026;-84
2024/04/03 09:55:28;;;;;;;0.00;0.00;;;20.40;52.50;;;;;;5027312;28;20480;-84
2024/04/03 09:58:10;;;;;;;0.90;0.90;;;19.40;55.20;;;;;;5037172;28;20035;-84
2024/04/03 10:00:40;;;;;;;0.98;0.98;;;19.60;57.10;;;;;;5042764;28;20021;-83
2024/04/03 10:03:23;;;;;;;0.90;0.90;;;20.80;54.30;;;;;;5044779;28;20026;-84
2024/04/03 10:06:00;;;;;;;0.90;0.90;;;21.50;52.20;;;;;;5040982;28;20448;-83
2024/04/03 10:08:43;;;;;;;0.28;0.28;;;22.20;51.80;;;;;;5033200;28;20033;-84
2024/04/03 10:11:14;;;;;;;0.10;0.10;;;22.40;51.30;;;;;;5029801;28;20409;-84
2024/04/03 10:13:41;;;;;;;0.10;0.10;;;22.10;50.60;;;;;;5014654;28;20022;-84
2024/04/03 10:16:14;;;;;;;0.03;0.03;;;21.20;50.90;;;;;;5017088;28;20022;-84
2024/04/03 10:18:53;;;;;;;0.38;0.38;;;20.30;52.10;;;;;;5016077;28;20057;-84
2024/04/03 10:21:21;;;;;;;0.00;0.00;;;20.00;53.80;;;;;;5017049;28;20042;-84
2024/04/03 10:23:50;;;;;;;0.10;0.10;;;20.00;54.00;;;;;;5016818;28;20029;-84
2024/04/03 10:26:18;;;;;;;0.10;0.10;;;20.10;54.30;;;;;;5017112;28;20108;-84
2024/04/03 10:28:45;;;;;;;0.00;0.00;;;19.90;54.80;;;;;;5017050;28;20026;-83
2024/04/03 10:31:21;;;;;;;0.10;0.10;;;19.60;55.00;;;;;;5015799;28;20033;-84
2024/04/03 10:33:50;;;;;;;0.00;0.00;;;19.30;55.50;;;;;;5016342;28;20034;-84
2024/04/03 10:36:19;;;;;;;0.05;0.05;;;19.20;55.00;;;;;;5015438;28;20396;-84
2024/04/03 10:38:45;;;;;;;0.10;0.10;;;18.90;54.70;;;;;;5020428;28;20104;-84
2024/04/03 10:41:12;;;;;;;0.00;0.00;;;18.50;56.20;;;;;;5034922;28;20026;-84
2024/04/03 10:43:38;;;;;;;0.10;0.10;;;18.30;56.80;;;;;;5018932;28;20499;-84
2024/04/03 10:46:05;;;;;;;0.10;0.10;;;18.10;58.00;;;;;;5020831;28;20033;-83
2024/04/03 10:48:31;;;;;;;0.10;0.10;;;18.10;57.30;;;;;;5015276;28;20056;-84
2024/04/03 10:50:57;;;;;;;0.10;0.10;;;18.30;57.70;;;;;;5016376;28;20463;-84
2024/04/03 10:53:23;;;;;;;0.10;0.10;;;18.30;57.70;;;;;;5031792;28;20053;-84
2024/04/03 10:55:50;;;;;;;0.10;0.10;;;18.30;56.10;;;;;;5016492;28;20026;-84
2024/04/03 10:58:15;;;;;;;0.10;0.10;;;18.20;55.50;;;;;;5016692;28;20160;-84
2024/04/03 11:00:43;;;;;;;0.10;0.10;;;18.20;56.00;;;;;;5016318;28;20033;-84
2024/04/03 11:03:10;;;;;;;0.10;0.10;;;18.10;56.80;;;;;;5022309;28;20032;-83
2024/04/03 11:05:37;;;;;;;0.10;0.10;;;18.30;56.50;;;;;;5024413;28;20403;-85
2024/04/03 11:08:03;;;;;;;0.03;0.03;;;18.60;56.50;;;;;;5036049;28;20022;-84
2024/04/03 11:10:30;;;;;;;0.10;0.10;;;18.50;55.50;;;;;;5025349;28;20061;-83
2024/04/03 11:13:05;;;;;;;0.10;0.10;;;18.50;56.20;;;;;;5016273;28;20073;-84
2024/04/03 11:15:31;;;;;;;0.10;0.10;;;18.40;55.30;;;;;;5016268;28;20459;-84
2024/04/03 11:17:58;;;;;;;0.10;0.10;;;18.60;57.60;;;;;;5016532;28;20460;-84
2024/04/03 11:20:25;;;;;;;0.10;0.10;;;18.80;56.50;;;;;;5015324;28;20034;-83
2024/04/03 11:22:55;;;;;;;0.10;0.10;;;19.00;55.40;;;;;;5016234;28;20112;-83
2024/04/03 11:25:21;;;;;;;0.10;0.10;;;19.10;55.10;;;;;;5015694;28;20103;-82
2024/04/03 11:27:47;;;;;;;0.10;0.10;;;19.00;54.90;;;;;;5033026;28;20022;-84
2024/04/03 11:30:12;;;;;;;0.10;0.10;;;18.80;54.50;;;;;;5028501;28;20141;-83
2024/04/03 11:32:38;;;;;;;0.10;0.10;;;18.90;54.80;;;;;;5016165;28;20034;-84
2024/04/03 11:35:07;;;;;;;0.10;0.10;;;18.80;53.20;;;;;;5015233;28;20083;-85
2024/04/03 11:37:32;;;;;;;0.10;0.10;;;19.10;54.80;;;;;;5027167;28;20032;-86
2024/04/03 11:39:58;;;;;;;0.10;0.10;;;19.00;53.00;;;;;;5029919;28;20026;-86
2024/04/03 11:42:24;;;;;;;0.10;0.10;;;18.80;52.50;;;;;;5004037;28;20025;-86
2024/04/03 11:44:49;;;;;;;0.10;0.10;;;18.80;52.70;;;;;;5015671;28;20026;-85
2024/04/03 11:47:15;;;;;;;0.10;0.10;;;18.70;52.90;;;;;;5019473;28;20036;-86
2024/04/03 11:49:42;;;;;;;0.10;0.10;;;18.70;53.20;;;;;;5035307;28;20124;-85
2024/04/03 11:52:08;;;;;;;0.10;0.10;;;18.80;54.40;;;;;;5020073;28;20101;-85
2024/04/03 11:54:34;;;;;;;0.10;0.10;;;18.90;53.70;;;;;;5002254;28;20124;-85
2024/04/03 11:57:00;;;;;;;0.10;0.10;;;19.20;54.80;;;;;;5018110;28;20021;-85
2024/04/03 11:59:26;;;;;;;0.10;0.10;;;19.40;54.40;;;;;;5020145;28;20111;-85
2024/04/03 12:01:52;;;;;;;0.00;0.00;;;19.50;53.70;;;;;;5019528;28;20025;-86
2024/04/03 12:04:17;;;;;;;0.10;0.10;;;19.30;51.60;;;;;;5034917;28;20103;-85
2024/04/03 12:06:43;;;;;;;0.10;0.10;;;19.00;51.60;;;;;;5027047;28;20448;-86
2024/04/03 12:09:09;;;;;;;0.00;0.00;;;19.00;51.60;;;;;;5026367;28;20039;-86
2024/04/03 12:11:34;;;;;;;0.10;0.10;;;19.00;52.70;;;;;;5021389;28;20059;-86
2024/04/03 12:14:02;;;;;;;0.00;0.00;;;18.90;52.40;;;;;;5020228;28;20026;-87
2024/04/03 12:16:30;;;;;;;0.10;0.10;;;18.90;51.80;;;;;;5021237;28;20033;-86
2024/04/03 12:19:15;;;;;;;0.10;0.10;;;19.00;53.50;;;;;;5021157;28;20044;-86
2024/04/03 12:21:41;;;;;;;0.10;0.10;;;19.20;53.10;;;;;;5029638;28;20132;-86
2024/04/03 12:24:08;;;;;;;0.10;0.10;;;19.20;52.80;;;;;;5036564;28;20044;-85
2024/04/03 12:26:34;;;;;;;0.10;0.10;;;19.30;52.60;;;;;;5032939;28;20446;-84
2024/04/03 12:29:00;;;;;;;0.10;0.10;;;19.30;52.60;;;;;;5037012;28;20111;-85
2024/04/03 12:31:26;;;;;;;0.10;0.10;;;19.30;53.00;;;;;;5037658;28;20029;-85
2024/04/03 12:33:52;;;;;;;0.08;0.08;;;19.30;52.40;;;;;;5038314;28;20026;-85
2024/04/03 12:36:18;;;;;;;0.10;0.10;;;19.50;53.30;;;;;;5036617;28;20026;-85
2024/04/03 12:38:47;;;;;;;0.10;0.10;;;19.80;53.00;;;;;;5038673;28;20025;-85
2024/04/03 12:41:13;;;;;;;0.10;0.10;;;19.80;52.60;;;;;;5038588;28;20022;-85
2024/04/03 12:43:39;;;;;;;0.10;0.10;;;19.70;51.20;;;;;;5038705;28;20792;-86
2024/04/03 12:46:05;;;;;;;0.10;0.10;;;19.50;52.00;;;;;;5026962;28;20038;-86
2024/04/03 12:48:31;;;;;;;0.10;0.10;;;19.50;52.50;;;;;;5036952;28;20033;-86